Time;durP1;ratioP1;P1;durP2;ratioP2;P2;SDS_P1;SDS_P2;PMS_P1;PMS_P2;Temp;Humidity;BMP_temperature;BMP_pressure;BME280_temperature;BME280_humidity;BME280_pressure;Samples;Min_cycle;Max_cycle;Signal;HPM_P1;HPM_P2
2022/04/26 03:36:25;;;;;;;12.97;10.73;;;;;;;-143.37;100.00;62585.38;5064723;28;20440;-77
2022/04/26 03:39:00;;;;;;;16.90;12.50;;;;;;;-143.37;100.00;62585.38;5064840;28;20466;-76
2022/04/26 03:41:38;;;;;;;13.17;11.77;;;;;;;-143.37;100.00;62585.38;5067826;28;20766;-76
2022/04/26 03:44:13;;;;;;;13.73;11.77;;;;;;;-143.37;100.00;62585.38;5066260;28;20448;-76
2022/04/26 03:46:51;;;;;;;12.43;11.20;;;;;;;-143.37;100.00;62585.38;5084457;28;20444;-76
2022/04/26 03:49:27;;;;;;;14.20;12.80;;;;;;;-143.37;100.00;62585.38;5066086;28;20441;-76
2022/04/26 03:52:07;;;;;;;13.30;11.17;;;;;;;-143.37;100.00;62585.38;5047895;28;20442;-77
2022/04/26 03:54:43;;;;;;;13.63;11.97;;;;;;;-143.37;100.00;62585.38;5065326;28;20801;-76
2022/04/26 03:57:20;;;;;;;13.30;11.20;;;;;;;-143.37;100.00;62585.38;5055815;28;20453;-77
2022/04/26 03:59:56;;;;;;;13.17;11.20;;;;;;;-143.37;100.00;62585.38;5066305;28;20465;-76
2022/04/26 04:02:31;;;;;;;14.40;11.70;;;;;;;-143.37;100.00;62585.38;5066099;28;20839;-77
2022/04/26 04:05:08;;;;;;;16.73;13.20;;;;;;;-143.37;100.00;62585.38;5060113;28;20436;-76
2022/04/26 04:07:43;;;;;;;15.70;12.73;;;;;;;-143.37;100.00;62585.38;5082350;28;20457;-76
2022/04/26 04:10:20;;;;;;;16.33;13.40;;;;;;;-143.37;100.00;62585.38;5071313;28;20440;-76
2022/04/26 04:13:01;;;;;;;14.77;12.10;;;;;;;-143.37;100.00;62585.38;5072093;28;20832;-76
2022/04/26 04:15:36;;;;;;;15.70;12.23;;;;;;;-143.37;100.00;62585.38;5071706;28;21882;-76
2022/04/26 04:21:03;;;;;;;13.50;10.90;;;;;;;-143.37;100.00;62585.38;5075336;28;20447;-76
2022/04/26 04:23:40;;;;;;;11.60;9.80;;;;;;;-143.37;100.00;62585.38;5071169;28;20931;-76
2022/04/26 04:26:15;;;;;;;13.40;10.50;;;;;;;-143.37;100.00;62585.38;5069442;28;20445;-76
2022/04/26 04:28:52;;;;;;;11.37;9.20;;;;;;;-143.37;100.00;62585.38;5060263;28;20444;-76
2022/04/26 04:31:28;;;;;;;10.80;8.67;;;;;;;-143.37;100.00;62585.38;5073553;28;20881;-76
2022/04/26 04:34:04;;;;;;;11.10;9.50;;;;;;;-143.37;100.00;62585.38;5058448;28;20444;-77
2022/04/26 04:36:40;;;;;;;12.60;10.77;;;;;;;-143.37;100.00;62585.38;5052033;28;20456;-77
2022/04/26 04:39:19;;;;;;;12.53;10.87;;;;;;;-143.37;100.00;62585.38;5061863;28;20461;-76
2022/04/26 04:41:55;;;;;;;11.13;9.93;;;;;;;-143.37;100.00;62585.38;5071114;28;20460;-76
2022/04/26 04:44:32;;;;;;;11.83;9.30;;;;;;;-143.37;100.00;62585.38;5067144;28;20440;-76
2022/04/26 04:47:08;;;;;;;11.70;10.17;;;;;;;-143.37;100.00;62585.38;5058842;28;20926;-76
2022/04/26 04:49:43;;;;;;;13.23;10.93;;;;;;;-143.37;100.00;62585.38;5061433;28;20441;-76
2022/04/26 04:52:19;;;;;;;12.20;10.77;;;;;;;-143.37;100.00;62585.38;5068470;28;20454;-76
2022/04/26 04:54:54;;;;;;;10.40;9.10;;;;;;;-143.37;100.00;62585.38;5064903;28;20802;-77
2022/04/26 04:57:30;;;;;;;10.73;9.63;;;;;;;-143.37;100.00;62585.38;5074140;28;20448;-76
2022/04/26 05:00:09;;;;;;;12.40;9.83;;;;;;;-143.37;100.00;62585.38;5116814;22;20496;-76
2022/04/26 05:02:44;;;;;;;15.90;12.30;;;;;;;-143.37;100.00;62585.38;5083283;28;20475;-76
2022/04/26 05:05:23;;;;;;;17.50;12.10;;;;;;;-143.37;100.00;62585.38;5097120;28;20792;-76
2022/04/26 05:07:59;;;;;;;14.80;11.43;;;;;;;-143.37;100.00;62585.38;5088572;28;20441;-76
2022/04/26 05:10:36;;;;;;;18.77;11.93;;;;;;;-143.37;100.00;62585.38;5078347;28;20470;-76
2022/04/26 05:13:12;;;;;;;13.80;11.50;;;;;;;-143.37;100.00;62585.38;5104013;28;20775;-76
2022/04/26 05:15:49;;;;;;;13.33;11.93;;;;;;;-143.37;100.00;62585.38;5076545;28;20510;-76
2022/04/26 05:18:24;;;;;;;12.87;10.53;;;;;;;-143.37;100.00;62585.38;5092067;27;20739;-76
2022/04/26 05:21:00;;;;;;;14.83;10.87;;;;;;;-143.37;100.00;62585.38;5090808;28;20830;-76
2022/04/26 05:26:30;;;;;;;11.50;10.30;;;;;;;-143.37;100.00;62585.38;5074796;28;20449;-76
2022/04/26 05:29:06;;;;;;;12.83;10.50;;;;;;;-143.37;100.00;62585.38;5089186;28;20432;-76
2022/04/26 05:31:43;;;;;;;11.73;9.47;;;;;;;-143.37;100.00;62585.38;5087786;27;20424;-76
2022/04/26 05:34:19;;;;;;;14.43;11.50;;;;;;;-143.37;100.00;62585.38;5085857;28;21045;-76
2022/04/26 05:36:56;;;;;;;13.80;10.50;;;;;;;-143.37;100.00;62585.38;5085098;28;20523;-76
2022/04/26 05:39:31;;;;;;;11.70;9.53;;;;;;;-143.37;100.00;62585.38;5088556;28;20496;-76
2022/04/26 05:42:07;;;;;;;17.53;10.37;;;;;;;-143.37;100.00;62585.38;5083884;28;21020;-76
2022/04/26 05:44:43;;;;;;;11.53;10.00;;;;;;;-143.37;100.00;62585.38;5087254;28;20837;-76
2022/04/26 05:47:20;;;;;;;12.23;10.30;;;;;;;-143.37;100.00;62585.38;5087774;28;20519;-76
2022/04/26 05:49:56;;;;;;;16.40;11.47;;;;;;;-143.37;100.00;62585.38;5077792;28;20540;-76
2022/04/26 05:52:32;;;;;;;14.00;11.30;;;;;;;-143.37;100.00;62585.38;5070124;28;20763;-76
2022/04/26 05:55:09;;;;;;;13.90;11.10;;;;;;;-143.37;100.00;62585.38;5088581;28;20448;-77
2022/04/26 05:57:45;;;;;;;14.00;12.50;;;;;;;-143.37;100.00;62585.38;5082133;28;20523;-76
2022/04/26 06:00:23;;;;;;;15.37;12.83;;;;;;;-143.37;100.00;62585.38;5080942;28;20566;-76
2022/04/26 06:03:00;;;;;;;14.33;12.20;;;;;;;-143.37;100.00;62585.38;5078918;28;20942;-76
2022/04/26 06:05:36;;;;;;;16.87;12.17;;;;;;;-143.37;100.00;62585.38;5103071;28;20453;-76
2022/04/26 06:08:12;;;;;;;15.00;13.10;;;;;;;-143.37;100.00;62585.38;5085226;28;20431;-76
2022/04/26 06:10:47;;;;;;;19.10;13.60;;;;;;;-143.37;100.00;62585.38;5080173;28;20444;-76
2022/04/26 06:13:24;;;;;;;17.80;13.20;;;;;;;-143.37;100.00;62585.38;5080934;28;20448;-76
2022/04/26 06:16:00;;;;;;;20.50;12.23;;;;;;;-143.37;100.00;62585.38;5069238;28;20443;-76
2022/04/26 06:18:36;;;;;;;15.93;13.30;;;;;;;-143.37;100.00;62585.38;5070105;28;20835;-76
2022/04/26 06:21:12;;;;;;;20.33;14.90;;;;;;;-143.37;100.00;62585.38;5105549;28;21097;-76
2022/04/26 06:23:50;;;;;;;16.40;13.13;;;;;;;-143.37;100.00;62585.38;5084666;28;20437;-76
2022/04/26 06:26:26;;;;;;;14.70;12.90;;;;;;;-143.37;100.00;62585.38;5084633;28;20460;-76
2022/04/26 06:29:02;;;;;;;16.57;13.03;;;;;;;-143.37;100.00;62585.38;5085803;28;20444;-76
2022/04/26 06:31:38;;;;;;;18.93;14.57;;;;;;;-143.37;100.00;62585.38;5068107;28;20447;-76
2022/04/26 06:34:15;;;;;;;17.87;15.27;;;;;;;-143.37;100.00;62585.38;5084642;28;20839;-76
2022/04/26 06:36:51;;;;;;;19.83;13.90;;;;;;;-143.37;100.00;62585.38;5080898;28;20840;-77
2022/04/26 06:39:27;;;;;;;17.30;14.50;;;;;;;-143.37;100.00;62585.38;5071269;28;20480;-76
2022/04/26 06:42:03;;;;;;;16.60;14.20;;;;;;;-143.37;100.00;62585.38;5103211;28;20646;-76
2022/04/26 06:44:41;;;;;;;17.13;14.80;;;;;;;-143.37;100.00;62585.38;5070136;28;21018;-77
2022/04/26 06:47:17;;;;;;;16.77;14.37;;;;;;;-143.37;100.00;62585.38;5088334;28;20460;-76
2022/04/26 06:49:55;;;;;;;16.37;14.60;;;;;;;-143.37;100.00;62585.38;5086063;28;20781;-76
2022/04/26 06:52:31;;;;;;;15.93;14.20;;;;;;;-143.37;100.00;62585.38;5084388;28;20440;-76
2022/04/26 06:55:08;;;;;;;17.30;15.43;;;;;;;-143.37;100.00;62585.38;5088335;28;20478;-76
2022/04/26 06:57:43;;;;;;;17.90;15.60;;;;;;;-143.37;100.00;62585.38;5083269;28;20453;-76
2022/04/26 07:00:19;;;;;;;16.47;13.73;;;;;;;-143.37;100.00;62585.38;5085020;28;20472;-76
2022/04/26 07:02:55;;;;;;;21.77;15.60;;;;;;;-143.37;100.00;62585.38;5067408;28;20440;-77
2022/04/26 07:05:32;;;;;;;27.20;15.60;;;;;;;-143.37;100.00;62585.38;5046580;28;20453;-76
2022/04/26 07:08:08;;;;;;;17.93;14.57;;;;;;;-143.37;100.00;62585.38;5045387;28;20452;-77
2022/04/26 07:10:43;;;;;;;15.10;13.50;;;;;;;-143.37;100.00;62585.38;5067660;28;20526;-77
2022/04/26 07:13:20;;;;;;;14.70;12.67;;;;;;;-143.37;100.00;62585.38;5049090;28;20464;-77
2022/04/26 07:15:55;;;;;;;16.67;13.37;;;;;;;-143.37;100.00;62585.38;5047080;28;20519;-76
2022/04/26 07:18:33;;;;;;;16.07;13.80;;;;;;;-143.37;100.00;62585.38;5062225;28;20513;-77
2022/04/26 07:21:11;;;;;;;16.60;14.40;;;;;;;-143.37;100.00;62585.38;5058068;28;20461;-77
2022/04/26 07:23:47;;;;;;;15.90;13.97;;;;;;;-143.37;100.00;62585.38;5059303;28;20901;-76
2022/04/26 07:26:23;;;;;;;13.40;11.80;;;;;;;-143.37;100.00;62585.38;5049301;28;20898;-76
2022/04/26 07:28:59;;;;;;;13.00;11.00;;;;;;;-143.37;100.00;62585.38;5062566;28;20927;-77
2022/04/26 07:31:35;;;;;;;15.77;13.50;;;;;;;-143.37;100.00;62585.38;5080355;28;20445;-77
2022/04/26 07:34:21;;;;;;;15.17;13.57;;;;;;;-143.37;100.00;62585.38;5067412;28;20456;-77
2022/04/26 07:37:01;;;;;;;17.00;13.17;;;;;;;-143.37;100.00;62585.38;5064809;28;20438;-76
2022/04/26 07:39:37;;;;;;;16.60;13.67;;;;;;;-143.37;100.00;62585.38;5051591;28;20517;-77
2022/04/26 07:42:13;;;;;;;14.57;12.67;;;;;;;-143.37;100.00;62585.38;5051432;28;20448;-77
2022/04/26 07:44:50;;;;;;;12.77;11.47;;;;;;;-143.37;100.00;62585.38;5065681;28;20934;-76
2022/04/26 07:47:26;;;;;;;10.77;9.67;;;;;;;-143.37;100.00;62585.38;5063715;28;20528;-78
2022/04/26 07:50:05;;;;;;;13.77;10.00;;;;;;;-143.37;100.00;62585.38;5060435;28;20433;-76
2022/04/26 07:52:42;;;;;;;10.80;9.70;;;;;;;-143.37;100.00;62585.38;5064715;28;20442;-76
2022/04/26 07:55:18;;;;;;;10.43;9.07;;;;;;;-143.37;100.00;62585.38;5061443;28;20449;-86
2022/04/26 07:57:53;;;;;;;10.97;8.60;;;;;;;-143.37;100.00;62585.38;5060639;28;20441;-77
2022/04/26 08:00:29;;;;;;;11.63;10.30;;;;;;;-143.37;100.00;62585.38;5062479;28;20469;-77
2022/04/26 08:03:07;;;;;;;10.67;9.67;;;;;;;-143.37;100.00;62585.38;5050942;28;20443;-77
2022/04/26 08:05:43;;;;;;;10.83;9.70;;;;;;;-143.37;100.00;62585.38;5063406;28;20441;-76
2022/04/26 08:08:19;;;;;;;11.70;8.73;;;;;;;-143.37;100.00;62585.38;5059452;28;20854;-77
2022/04/26 08:10:55;;;;;;;9.73;8.50;;;;;;;-143.37;100.00;62585.38;5078793;28;20436;-77
2022/04/26 08:13:30;;;;;;;10.30;9.27;;;;;;;-143.37;100.00;62585.38;5081784;28;20781;-77
2022/04/26 08:16:06;;;;;;;10.47;9.20;;;;;;;-143.37;100.00;62585.38;5046421;28;20529;-76
2022/04/26 08:18:42;;;;;;;10.30;9.20;;;;;;;-143.37;100.00;62585.38;5041821;28;20442;-80
2022/04/26 08:21:18;;;;;;;10.33;9.23;;;;;;;-143.37;100.00;62585.38;5044384;28;20461;-79
2022/04/26 08:29:46;;;;;;;10.87;9.77;;;;;;;-143.37;100.00;62585.38;5066400;28;20445;-79
2022/04/26 08:32:24;;;;;;;10.33;9.07;;;;;;;-143.37;100.00;62585.38;5065460;28;20443;-80
2022/04/26 08:34:59;;;;;;;12.80;8.90;;;;;;;-143.37;100.00;62585.38;5047148;28;20448;-79
2022/04/26 08:37:35;;;;;;;11.27;10.17;;;;;;;-143.37;100.00;62585.38;5062683;28;20426;-80
2022/04/26 08:40:12;;;;;;;11.17;9.60;;;;;;;-143.37;100.00;62585.38;5059261;28;20496;-80
2022/04/26 08:42:51;;;;;;;10.87;9.77;;;;;;;-143.37;100.00;62585.38;5061565;28;20867;-79
2022/04/26 08:45:27;;;;;;;11.00;9.90;;;;;;;-143.37;100.00;62585.38;5045992;28;20480;-79
2022/04/26 08:51:07;;;;;;;10.77;9.33;;;;;;;-143.37;100.00;62585.38;5061227;28;20855;-79
2022/04/26 08:53:44;;;;;;;11.80;9.37;;;;;;;-143.37;100.00;62585.38;5056949;28;20460;-79
2022/04/26 08:56:24;;;;;;;11.00;9.93;;;;;;;-143.37;100.00;62585.38;5062337;28;20437;-79
2022/04/26 08:59:01;;;;;;;12.17;10.77;;;;;;;-143.37;100.00;62585.38;5073000;28;20465;-79
2022/04/26 09:01:37;;;;;;;11.93;10.47;;;;;;;-143.37;100.00;62585.38;5065402;28;20449;-79
2022/04/26 09:04:15;;;;;;;9.93;8.90;;;;;;;-143.37;100.00;62585.38;5069212;28;20448;-79
2022/04/26 09:06:51;;;;;;;9.87;8.40;;;;;;;-143.37;100.00;62585.38;5069699;28;20433;-79
2022/04/26 09:09:31;;;;;;;10.37;9.33;;;;;;;-143.37;100.00;62585.38;5053620;28;20935;-79
2022/04/26 09:12:12;;;;;;;10.27;9.17;;;;;;;-143.37;100.00;62585.38;5070030;28;20927;-79
2022/04/26 09:14:51;;;;;;;13.43;8.53;;;;;;;-143.37;100.00;62585.38;5072833;28;20441;-79
2022/04/26 09:17:26;;;;;;;11.40;9.30;;;;;;;-143.37;100.00;62585.38;5090483;28;20442;-79
2022/04/26 09:20:08;;;;;;;9.50;8.57;;;;;;;-143.37;100.00;62585.38;5068713;28;20471;-79
2022/04/26 09:22:45;;;;;;;10.20;9.10;;;;;;;-143.37;100.00;62585.38;5051052;28;20514;-79
2022/04/26 09:25:30;;;;;;;9.70;8.73;;;;;;;-143.37;100.00;62585.38;5064091;28;20456;-79
2022/04/26 09:28:20;;;;;;;9.60;8.60;;;;;;;-143.37;100.00;62585.38;5069331;28;20471;-79
2022/04/26 09:30:56;;;;;;;10.07;8.30;;;;;;;-143.37;100.00;62585.38;5069313;28;20441;-79
2022/04/26 09:33:33;;;;;;;8.97;8.07;;;;;;;-143.37;100.00;62585.38;5070532;28;20445;-79
2022/04/26 09:36:10;;;;;;;10.23;8.40;;;;;;;-143.37;100.00;62585.38;5054527;28;20539;-79
2022/04/26 09:38:53;;;;;;;11.07;8.67;;;;;;;-143.37;100.00;62585.38;5068478;28;20441;-79
2022/04/26 09:41:51;;;;;;;9.90;8.90;;;;;;;-143.37;100.00;62585.38;5086085;28;21001;-80
2022/04/26 09:44:32;;;;;;;9.37;8.03;;;;;;;-143.37;100.00;62585.38;5069931;28;20893;-79
2022/04/26 09:47:08;;;;;;;10.80;9.50;;;;;;;-143.37;100.00;62585.38;5052836;28;20822;-79
2022/04/26 09:49:44;;;;;;;9.60;8.60;;;;;;;-143.37;100.00;62585.38;5091101;28;20501;-79
2022/04/26 09:52:23;;;;;;;9.50;8.50;;;;;;;-143.37;100.00;62585.38;5072336;28;20871;-80
2022/04/26 09:55:04;;;;;;;10.90;8.27;;;;;;;-143.37;100.00;62585.38;5068638;28;20807;-79
2022/04/26 09:57:55;;;;;;;10.07;8.47;;;;;;;-143.37;100.00;62585.38;5069819;28;20460;-79
2022/04/26 10:00:33;;;;;;;8.63;7.73;;;;;;;-143.37;100.00;62585.38;5069849;28;20461;-79
2022/04/26 10:03:10;;;;;;;9.07;8.17;;;;;;;-143.37;100.00;62585.38;5066624;28;20424;-80
2022/04/26 10:05:48;;;;;;;7.50;6.80;;;;;;;-143.37;100.00;62585.38;5066480;28;20441;-79
2022/04/26 10:08:24;;;;;;;8.90;8.00;;;;;;;-143.37;100.00;62585.38;5054422;28;20433;-79
2022/04/26 10:11:00;;;;;;;9.00;7.60;;;;;;;-143.37;100.00;62585.38;5068364;28;20441;-80
2022/04/26 10:13:40;;;;;;;6.80;6.13;;;;;;;-143.37;100.00;62585.38;5066442;28;20436;-79
2022/04/26 10:16:21;;;;;;;7.50;6.50;;;;;;;-143.37;100.00;62585.38;5085763;28;20551;-79
2022/04/26 10:19:02;;;;;;;7.57;6.77;;;;;;;-143.37;100.00;62585.38;5055465;28;20433;-79
2022/04/26 10:21:49;;;;;;;6.60;6.00;;;;;;;-143.37;100.00;62585.38;5065610;28;20517;-79
2022/04/26 10:24:25;;;;;;;7.10;6.40;;;;;;;-143.37;100.00;62585.38;5049378;28;20449;-79
2022/04/26 10:27:19;;;;;;;7.00;6.30;;;;;;;-143.37;100.00;62585.38;5066049;28;20548;-79
2022/04/26 10:29:55;;;;;;;7.27;6.23;;;;;;;-143.37;100.00;62585.38;5082681;28;20454;-79
2022/04/26 10:32:38;;;;;;;6.80;6.20;;;;;;;-143.37;100.00;62585.38;5077770;28;20433;-79
2022/04/26 10:35:40;;;;;;;7.30;6.00;;;;;;;-143.37;100.00;62585.38;5065303;28;20446;-80
2022/04/26 10:38:17;;;;;;;8.50;6.77;;;;;;;-143.37;100.00;62585.38;5040427;28;20506;-79
2022/04/26 10:41:10;;;;;;;6.90;6.00;;;;;;;-143.37;100.00;62585.38;5053943;28;20485;-79
2022/04/26 10:44:20;;;;;;;9.63;7.07;;;;;;;-143.37;100.00;62585.38;5079979;28;20942;-79
2022/04/26 10:47:24;;;;;;;6.93;6.13;;;;;;;-143.37;100.00;62585.38;5067662;28;20454;-80
2022/04/26 10:50:02;;;;;;;7.57;6.80;;;;;;;-143.37;100.00;62585.38;5047534;28;20480;-79
2022/04/26 10:52:47;;;;;;;7.53;6.63;;;;;;;-143.37;100.00;62585.38;5066522;28;20433;-79
2022/04/26 10:55:27;;;;;;;7.13;5.77;;;;;;;-143.37;100.00;62585.38;5069637;28;20848;-79
2022/04/26 10:58:04;;;;;;;6.17;5.63;;;;;;;-143.37;100.00;62585.38;5079382;28;20437;-79
2022/04/26 11:00:41;;;;;;;7.93;5.97;;;;;;;-143.37;100.00;62585.38;5061408;28;20473;-80
2022/04/26 11:03:18;;;;;;;8.27;5.90;;;;;;;-143.37;100.00;62585.38;5067852;28;20437;-80
2022/04/26 11:05:56;;;;;;;8.03;5.80;;;;;;;-143.37;100.00;62585.38;5065534;28;20760;-79
2022/04/26 11:08:31;;;;;;;6.70;6.10;;;;;;;-143.37;100.00;62585.38;5062190;28;20428;-79
2022/04/26 11:11:10;;;;;;;6.07;5.00;;;;;;;-143.37;100.00;62585.38;5059482;28;20816;-79
2022/04/26 11:13:46;;;;;;;5.47;4.97;;;;;;;-143.37;100.00;62585.38;5067307;28;20451;-79
2022/04/26 11:16:23;;;;;;;5.50;3.97;;;;;;;-143.37;100.00;62585.38;5050630;28;20798;-79
2022/04/26 11:18:59;;;;;;;5.77;5.17;;;;;;;-143.37;100.00;62585.38;5063848;28;20441;-79
2022/04/26 11:21:36;;;;;;;3.90;3.43;;;;;;;-143.37;100.00;62585.38;5050966;28;20477;-79
2022/04/26 11:30:08;;;;;;;9.30;7.80;;;;;;;-143.37;100.00;62585.38;5065378;28;20516;-79
2022/04/26 11:32:44;;;;;;;8.47;7.70;;;;;;;-143.37;100.00;62585.38;5062323;28;20826;-79
2022/04/26 11:35:23;;;;;;;9.93;8.73;;;;;;;-143.37;100.00;62585.38;5062632;28;20532;-79
2022/04/26 11:38:08;;;;;;;9.90;8.87;;;;;;;-143.37;100.00;62585.38;5048882;28;20454;-79
2022/04/26 11:40:48;;;;;;;11.60;9.00;;;;;;;-143.37;100.00;62585.38;5067402;28;20485;-79
2022/04/26 11:43:26;;;;;;;13.90;10.13;;;;;;;-143.37;100.00;62585.38;5065589;28;20433;-79
2022/04/26 11:46:03;;;;;;;8.40;7.60;;;;;;;-143.37;100.00;62585.38;5043178;28;20454;-79
2022/04/26 11:48:39;;;;;;;8.53;7.73;;;;;;;-143.37;100.00;62585.38;5046747;28;20910;-79
2022/04/26 11:51:16;;;;;;;9.83;8.90;;;;;;;-143.37;100.00;62585.38;5043326;28;20624;-79
2022/04/26 11:53:53;;;;;;;8.97;8.07;;;;;;;-143.37;100.00;62585.38;5047906;28;20436;-78
2022/04/26 11:56:29;;;;;;;10.10;8.60;;;;;;;-143.37;100.00;62585.38;5065795;28;20445;-79
2022/04/26 11:59:04;;;;;;;11.93;8.50;;;;;;;-143.37;100.00;62585.38;5061307;28;20454;-79
2022/04/26 12:01:39;;;;;;;9.17;8.27;;;;;;;-143.37;100.00;62585.38;5061150;28;20484;-79
2022/04/26 12:04:15;;;;;;;8.90;8.03;;;;;;;-143.37;100.00;62585.38;5063973;28;20441;-79
2022/04/26 12:06:52;;;;;;;8.83;7.93;;;;;;;-143.37;100.00;62585.38;5078740;28;20442;-79
2022/04/26 12:09:29;;;;;;;10.33;7.53;;;;;;;-143.37;100.00;62585.38;5062968;28;20441;-79
2022/04/26 12:12:06;;;;;;;8.20;7.40;;;;;;;-143.37;100.00;62585.38;5059640;28;20448;-79
2022/04/26 12:14:42;;;;;;;7.30;6.50;;;;;;;-143.37;100.00;62585.38;5067280;28;20464;-79
2022/04/26 12:17:19;;;;;;;7.70;6.93;;;;;;;-143.37;100.00;62585.38;5050756;28;20449;-79
2022/04/26 12:19:54;;;;;;;8.00;7.27;;;;;;;-143.37;100.00;62585.38;5060025;28;20441;-79
2022/04/26 12:22:37;;;;;;;7.47;6.33;;;;;;;-143.37;100.00;62585.38;5063980;28;20805;-79
2022/04/26 12:25:16;;;;;;;7.00;6.30;;;;;;;-143.37;100.00;62585.38;5061570;28;20446;-79
2022/04/26 12:28:02;;;;;;;7.10;6.40;;;;;;;-143.37;100.00;62585.38;5044084;28;20809;-79
2022/04/26 12:30:41;;;;;;;8.37;7.40;;;;;;;-143.37;100.00;62585.38;5068631;28;20468;-79
2022/04/26 12:33:28;;;;;;;7.43;6.70;;;;;;;-143.37;100.00;62585.38;5068898;28;20420;-79
2022/04/26 12:36:05;;;;;;;7.30;6.60;;;;;;;-143.37;100.00;62585.38;5065124;28;20799;-79
2022/04/26 12:38:47;;;;;;;7.43;6.70;;;;;;;-143.37;100.00;62585.38;5053625;28;20858;-79
2022/04/26 12:41:24;;;;;;;8.50;6.90;;;;;;;-143.37;100.00;62585.38;5069602;28;20469;-79
2022/04/26 12:44:02;;;;;;;7.90;7.10;;;;;;;-143.37;100.00;62585.38;5070626;28;20854;-79
2022/04/26 12:50:27;;;;;;;8.90;7.57;;;;;;;-143.37;100.00;62585.38;5072591;28;20437;-78
2022/04/26 12:52:59;;;;;;;6.70;5.47;;;;;;;-143.37;100.00;62585.38;5055251;28;20939;-79
2022/04/26 12:55:40;;;;;;;6.10;5.50;;;;;;;-143.37;100.00;62585.38;5055214;28;20446;-79
2022/04/26 12:58:19;;;;;;;7.10;6.00;;;;;;;-143.37;100.00;62585.38;5081941;28;20461;-79
2022/04/26 13:00:55;;;;;;;7.20;6.50;;;;;;;-143.37;100.00;62585.38;5052599;28;20560;-79
2022/04/26 13:03:30;;;;;;;6.80;5.57;;;;;;;-143.37;100.00;62585.38;5069483;28;20821;-79
2022/04/26 13:06:10;;;;;;;6.83;5.13;;;;;;;-143.37;100.00;62585.38;5082064;28;20883;-79
2022/04/26 13:08:47;;;;;;;5.30;4.10;;;;;;;-143.37;100.00;62585.38;5062776;28;20540;-79
2022/04/26 13:11:23;;;;;;;5.67;4.77;;;;;;;-143.37;100.00;62585.38;5049010;28;20939;-79
2022/04/26 13:14:00;;;;;;;4.83;3.77;;;;;;;-143.37;100.00;62585.38;5054295;28;20782;-80
2022/04/26 13:16:35;;;;;;;7.10;4.70;;;;;;;-143.37;100.00;62585.38;5057922;28;20441;-79
2022/04/26 13:19:11;;;;;;;7.50;4.50;;;;;;;-143.37;100.00;62585.38;5070651;28;20480;-79
2022/04/26 13:21:47;;;;;;;4.50;4.00;;;;;;;-143.37;100.00;62585.38;5051371;28;20829;-79
2022/04/26 13:24:28;;;;;;;5.33;4.70;;;;;;;-143.37;100.00;62585.38;5052610;28;20436;-79
2022/04/26 13:27:04;;;;;;;5.20;4.70;;;;;;;-143.37;100.00;62585.38;5054085;28;20779;-79
2022/04/26 13:29:41;;;;;;;5.97;5.23;;;;;;;-143.37;100.00;62585.38;5082419;28;20439;-79
2022/04/26 13:32:17;;;;;;;5.60;4.20;;;;;;;-143.37;100.00;62585.38;5067548;28;20463;-79
2022/04/26 13:34:53;;;;;;;4.70;4.20;;;;;;;-143.37;100.00;62585.38;5066274;28;20829;-79
2022/04/26 13:37:28;;;;;;;4.40;3.83;;;;;;;-143.37;100.00;62585.38;5066721;28;20954;-79
2022/04/26 13:40:04;;;;;;;5.17;4.67;;;;;;;-143.37;100.00;62585.38;5050145;28;20435;-80
2022/04/26 13:42:39;;;;;;;4.73;4.17;;;;;;;-143.37;100.00;62585.38;5067500;28;20461;-79
2022/04/26 13:45:17;;;;;;;4.87;4.47;;;;;;;-143.37;100.00;62585.38;5068645;28;20502;-79
2022/04/26 13:47:57;;;;;;;4.40;4.00;;;;;;;-143.37;100.00;62585.38;5072734;28;20441;-80
2022/04/26 13:50:32;;;;;;;5.07;4.30;;;;;;;-143.37;100.00;62585.38;5068984;28;20828;-80
2022/04/26 13:53:08;;;;;;;7.07;4.23;;;;;;;-143.37;100.00;62585.38;5059793;28;20911;-79
2022/04/26 13:55:47;;;;;;;3.70;3.37;;;;;;;-143.37;100.00;62585.38;5047932;28;20492;-80
2022/04/26 13:58:22;;;;;;;3.93;3.40;;;;;;;-143.37;100.00;62585.38;5048080;28;20817;-79
2022/04/26 14:00:59;;;;;;;4.10;3.53;;;;;;;-143.37;100.00;62585.38;5063008;28;20472;-79
2022/04/26 14:03:35;;;;;;;3.40;3.10;;;;;;;-143.37;100.00;62585.38;5053916;28;20449;-79
2022/04/26 14:06:11;;;;;;;4.93;4.43;;;;;;;-143.37;100.00;62585.38;5046157;28;20519;-79
2022/04/26 14:08:48;;;;;;;3.70;3.30;;;;;;;-143.37;100.00;62585.38;5068303;28;20954;-79
2022/04/26 14:11:41;;;;;;;3.17;2.70;;;;;;;-143.37;100.00;62585.38;5068891;28;20437;-79
2022/04/26 14:23:01;;;;;;;4.80;2.80;;;;;;;-143.37;100.00;62585.38;5065576;28;20552;-79
2022/04/26 14:25:37;;;;;;;4.20;3.80;;;;;;;-143.37;100.00;62585.38;5055279;28;20440;-79
2022/04/26 14:28:13;;;;;;;2.87;2.57;;;;;;;-143.37;100.00;62585.38;5051448;28;20440;-79
2022/04/26 14:30:51;;;;;;;4.93;3.00;;;;;;;-143.37;100.00;62585.38;5054227;28;20448;-79
2022/04/26 14:33:31;;;;;;;3.93;3.53;;;;;;;-143.37;100.00;62585.38;5070996;28;20445;-79
2022/04/26 14:36:07;;;;;;;4.10;3.70;;;;;;;-143.37;100.00;62585.38;5068826;28;20449;-79
2022/04/26 14:38:44;;;;;;;3.70;3.33;;;;;;;-143.37;100.00;62585.38;5080657;28;20445;-79
2022/04/26 14:41:19;;;;;;;3.50;3.20;;;;;;;-143.37;100.00;62585.38;5050255;28;20469;-79
2022/04/26 14:43:55;;;;;;;3.30;2.87;;;;;;;-143.37;100.00;62585.38;5063719;28;20521;-79
2022/04/26 14:46:30;;;;;;;4.17;3.47;;;;;;;-143.37;100.00;62585.38;5065032;28;20449;-79
2022/04/26 14:49:07;;;;;;;4.87;3.63;;;;;;;-143.37;100.00;62585.38;5068167;28;20766;-79
2022/04/26 14:51:43;;;;;;;4.57;4.00;;;;;;;-143.37;100.00;62585.38;5063844;28;20548;-79
2022/04/26 14:54:18;;;;;;;4.50;3.30;;;;;;;-143.37;100.00;62585.38;5068445;28;20432;-79
2022/04/26 14:56:54;;;;;;;4.13;3.23;;;;;;;-143.37;100.00;62585.38;5084477;28;20802;-79
2022/04/26 14:59:31;;;;;;;4.57;4.13;;;;;;;-143.37;100.00;62585.38;5092669;28;21056;-79
2022/04/26 15:02:07;;;;;;;4.57;3.70;;;;;;;-143.37;100.00;62585.38;5095377;28;20822;-79
2022/04/26 15:04:47;;;;;;;7.37;3.20;;;;;;;-143.37;100.00;62585.38;5082513;28;20444;-79
2022/04/26 15:07:22;;;;;;;3.57;3.27;;;;;;;-143.37;100.00;62585.38;5085317;28;20437;-79
2022/04/26 15:09:57;;;;;;;4.23;3.80;;;;;;;-143.37;100.00;62585.38;5068477;28;20445;-78
2022/04/26 15:18:23;;;;;;;4.20;3.43;;;;;;;-143.37;100.00;62585.38;5088359;28;20480;-79
2022/04/26 15:21:02;;;;;;;4.00;3.63;;;;;;;-143.37;100.00;62585.38;5069796;28;20444;-79
2022/04/26 15:23:38;;;;;;;3.90;3.47;;;;;;;-143.37;100.00;62585.38;5086230;28;20461;-79
2022/04/26 15:26:14;;;;;;;4.50;4.10;;;;;;;-143.37;100.00;62585.38;5067583;28;21402;-79
2022/04/26 15:28:50;;;;;;;4.50;3.73;;;;;;;-143.37;100.00;62585.38;5081287;28;20427;-79
2022/04/26 15:31:27;;;;;;;5.23;4.83;;;;;;;-143.37;100.00;62585.38;5068563;28;20440;-79
2022/04/26 15:34:03;;;;;;;4.30;3.80;;;;;;;-143.37;100.00;62585.38;5101702;28;20526;-79
2022/04/26 15:36:41;;;;;;;3.90;3.50;;;;;;;-143.37;100.00;62585.38;5068909;28;20452;-79
2022/04/26 15:39:16;;;;;;;3.90;3.40;;;;;;;-143.37;100.00;62585.38;5103180;28;20930;-79
2022/04/26 15:41:52;;;;;;;4.07;3.70;;;;;;;-143.37;100.00;62585.38;5072162;28;20555;-79
2022/04/26 15:44:28;;;;;;;6.43;5.83;;;;;;;-143.37;100.00;62585.38;5068130;28;20808;-79
2022/04/26 15:47:04;;;;;;;4.60;3.93;;;;;;;-143.37;100.00;62585.38;5070929;28;20471;-79
2022/04/26 15:49:39;;;;;;;5.20;4.23;;;;;;;-143.37;100.00;62585.38;5086848;28;20535;-79
2022/04/26 15:52:16;;;;;;;6.20;4.77;;;;;;;-143.37;100.00;62585.38;5087279;28;20475;-79
2022/04/26 15:54:52;;;;;;;6.30;4.83;;;;;;;-143.37;100.00;62585.38;5086608;28;20841;-80
2022/04/26 15:57:27;;;;;;;6.57;4.10;;;;;;;-143.37;100.00;62585.38;5080578;28;20483;-80
2022/04/26 16:00:04;;;;;;;5.83;4.47;;;;;;;-143.37;100.00;62585.38;5052585;28;20501;-80
2022/04/26 16:02:44;;;;;;;5.47;4.90;;;;;;;-143.37;100.00;62585.38;5073696;28;20918;-79